Time;durP1;ratioP1;P1;durP2;ratioP2;P2;SDS_P1;SDS_P2;PMS_P1;PMS_P2;Temp;Humidity;BMP_temperature;BMP_pressure;BME280_temperature;BME280_humidity;BME280_pressure;Samples;Min_cycle;Max_cycle;Signal;HPM_P1;HPM_P2
2022/07/27 00:01:45;;;;;;;8.30;5.40;;;;;;;14.14;95.72;96539.90;108459;1268;22546;-81
2022/07/27 00:04:16;;;;;;;7.50;5.30;;;;;;;14.11;95.60;96541.48;108275;1268;90176;-81
2022/07/27 00:06:58;;;;;;;8.40;5.30;;;;;;;14.09;95.48;96539.35;108464;1268;22537;-81
2022/07/27 00:09:37;;;;;;;5.60;5.00;;;;;;;14.08;95.56;96542.67;108481;1268;22565;-81
2022/07/27 00:12:12;;;;;;;6.60;5.10;;;;;;;14.11;95.58;96539.20;108492;1267;22758;-81
2022/07/27 00:14:44;;;;;;;6.60;4.90;;;;;;;14.15;95.76;96536.43;107052;1267;1702248;-81
2022/07/27 00:17:22;;;;;;;6.00;4.90;;;;;;;14.17;95.56;96537.48;108542;1267;22560;-81
2022/07/27 00:20:08;;;;;;;;;;;;;;;14.19;95.31;96535.41;108498;1267;25335;-81
2022/07/27 00:22:43;;;;;;;6.70;5.00;;;;;;;14.16;95.16;96534.36;108515;1268;24995;-81
2022/07/27 00:25:14;;;;;;;6.50;4.70;;;;;;;14.13;95.11;96530.02;106413;1267;2576753;-82
2022/07/27 00:27:47;;;;;;;5.50;4.70;;;;;;;14.12;95.12;96529.67;108510;1268;22686;-81
2022/07/27 00:30:35;;;;;;;5.70;4.60;;;;;;;14.10;95.10;96528.02;108498;1267;22544;-81
2022/07/27 00:33:07;;;;;;;5.80;4.40;;;;;;;14.09;94.95;96527.98;108471;1267;22574;-81
2022/07/27 00:35:39;;;;;;;6.60;4.30;;;;;;;14.10;94.94;96524.30;108237;1268;125090;-81
2022/07/27 00:38:17;;;;;;;5.60;4.90;;;;;;;14.13;94.80;96525.53;108466;1267;22600;-81
2022/07/27 00:40:52;;;;;;;5.70;4.60;;;;;;;14.15;94.67;96529.91;108514;1266;22648;-82
2022/07/27 00:43:27;;;;;;;7.00;4.60;;;;;;;14.16;94.44;96530.84;108479;1267;23697;-81
2022/07/27 00:45:59;;;;;;;5.50;4.40;;;;;;;14.15;94.17;96534.61;108505;1267;22534;-81
2022/07/27 00:48:34;;;;;;;6.30;4.50;;;;;;;14.10;93.87;96530.56;108492;1267;22567;-81
2022/07/27 00:51:07;;;;;;;6.50;4.90;;;;;;;14.09;93.77;96529.28;108476;1268;22586;-81
2022/07/27 00:53:44;;;;;;;5.60;4.40;;;;;;;14.06;93.65;96528.89;108295;1267;97241;-81
2022/07/27 00:56:16;;;;;;;6.80;4.40;;;;;;;14.02;93.49;96531.06;108503;1268;22541;-82
2022/07/27 00:58:50;;;;;;;5.40;4.60;;;;;;;14.01;93.41;96532.96;108500;1268;22565;-82
2022/07/27 01:01:26;;;;;;;6.30;4.40;;;;;;;13.99;93.60;96538.66;108481;1267;23922;-81
2022/07/27 01:04:03;;;;;;;6.30;5.00;;;;;;;14.01;93.72;96539.14;108184;1267;186074;-81
2022/07/27 01:06:39;;;;;;;4.70;4.20;;;;;;;14.04;93.64;96543.17;108531;1267;22520;-81
2022/07/27 01:12:16;;;;;;;5.00;4.40;;;;;;;14.00;93.48;96545.66;108495;1268;23204;-81
2022/07/27 01:14:52;;;;;;;5.60;4.30;;;;;;;14.01;93.32;96547.73;105754;1267;3547655;-81
2022/07/27 01:17:23;;;;;;;5.40;4.40;;;;;;;13.98;93.28;96545.67;108486;1265;25831;-81
2022/07/27 01:19:55;;;;;;;6.60;4.10;;;;;;;13.98;93.39;96548.66;108498;1267;22544;-81
2022/07/27 01:22:27;;;;;;;6.00;4.40;;;;;;;14.02;93.45;96545.41;108504;1267;24030;-81
2022/07/27 01:25:11;;;;;;;6.20;4.30;;;;;;;14.04;93.30;96546.90;108289;1267;113974;-81
2022/07/27 01:27:43;;;;;;;4.50;4.10;;;;;;;14.03;93.07;96541.55;108516;1268;22734;-81
2022/07/27 01:30:29;;;;;;;4.70;4.00;;;;;;;14.05;92.92;96540.11;108513;1265;22589;-81
2022/07/27 01:33:07;;;;;;;6.20;4.20;;;;;;;14.07;92.87;96537.92;108469;1268;22559;-81
2022/07/27 01:35:40;;;;;;;4.90;4.10;;;;;;;14.09;92.75;96532.26;108348;1267;65796;-81
2022/07/27 01:38:19;;;;;;;5.60;4.40;;;;;;;14.06;92.61;96530.58;108500;1267;22573;-81
2022/07/27 01:40:51;;;;;;;5.10;4.30;;;;;;;14.03;92.50;96530.46;108512;1267;23448;-81
2022/07/27 01:43:25;;;;;;;5.40;4.00;;;;;;;14.02;92.48;96532.47;108487;1267;25302;-81
2022/07/27 01:45:58;;;;;;;5.20;4.10;;;;;;;14.00;92.41;96534.37;108473;1268;24308;-81
2022/07/27 01:48:30;;;;;;;5.70;4.10;;;;;;;13.99;92.29;96532.86;108314;1270;22526;-81
2022/07/27 01:51:01;;;;;;;5.00;4.00;;;;;;;14.00;92.22;96532.89;108475;1268;22588;-81
2022/07/27 01:53:35;;;;;;;5.40;4.20;;;;;;;13.94;92.04;96527.96;108291;1268;88490;-80
2022/07/27 01:56:25;;;;;;;5.00;3.80;;;;;;;13.88;92.04;96529.46;108465;1268;23820;-81
2022/07/27 01:58:57;;;;;;;5.90;4.30;;;;;;;13.87;92.22;96525.08;108465;1268;22759;-81
2022/07/27 02:01:29;;;;;;;5.00;3.80;;;;;;;13.87;92.16;96523.04;108454;1268;22573;-81
2022/07/27 02:04:05;;;;;;;4.50;3.70;;;;;;;13.88;92.05;96518.84;106768;1268;2035394;-81
2022/07/27 02:06:38;;;;;;;6.50;4.20;;;;;;;13.91;92.03;96521.12;108453;1266;25399;-81
2022/07/27 02:09:11;;;;;;;6.20;4.20;;;;;;;13.90;91.98;96519.77;108454;1268;22558;-81
2022/07/27 02:14:34;;;;;;;5.20;4.10;;;;;;;13.96;91.70;96519.64;108278;1267;99031;-81
2022/07/27 02:17:08;;;;;;;5.50;3.90;;;;;;;13.97;91.50;96514.34;108475;1268;22559;-81
2022/07/27 02:19:44;;;;;;;5.70;3.90;;;;;;;14.01;91.43;96517.41;108427;1268;22577;-80
2022/07/27 02:22:19;;;;;;;4.80;4.10;;;;;;;14.01;91.27;96525.20;108346;1270;22539;-80
2022/07/27 02:24:51;;;;;;;5.50;3.80;;;;;;;13.98;91.02;96524.77;108220;1268;135256;-81
2022/07/27 02:27:22;;;;;;;6.30;4.10;;;;;;;13.98;90.97;96519.92;108465;1268;22523;-80
2022/07/27 02:30:05;;;;;;;5.80;3.50;;;;;;;13.99;90.63;96518.46;108475;1268;22523;-80
2022/07/27 02:32:36;;;;;;;5.10;3.50;;;;;;;13.96;90.47;96521.77;108457;1268;22607;-80
2022/07/27 02:35:09;;;;;;;5.20;3.70;;;;;;;13.95;90.36;96524.68;108310;1268;75370;-80
2022/07/27 02:37:45;;;;;;;5.60;3.80;;;;;;;13.91;90.19;96527.35;108443;1268;22557;-81
2022/07/27 02:40:21;;;;;;;4.40;3.70;;;;;;;13.87;90.14;96531.40;108445;1268;22688;-80
2022/07/27 02:43:02;;;;;;;5.60;4.10;;;;;;;13.85;90.14;96532.59;108472;1268;22557;-80
2022/07/27 02:45:33;;;;;;;5.50;3.70;;;;;;;13.87;90.36;96529.69;108271;1268;85733;-81
2022/07/27 02:48:09;;;;;;;4.70;3.70;;;;;;;13.92;90.30;96536.61;108484;1268;22579;-80
2022/07/27 02:50:43;;;;;;;5.80;3.80;;;;;;;13.94;90.21;96545.13;108461;1268;22566;-80
2022/07/27 02:53:14;;;;;;;7.30;3.80;;;;;;;13.95;90.09;96541.30;108466;1268;22556;-81
2022/07/27 02:55:57;;;;;;;6.20;3.90;;;;;;;13.96;89.95;96545.07;108462;1267;22557;-81
2022/07/27 02:58:42;;;;;;;5.60;3.70;;;;;;;13.98;89.88;96549.35;108442;1268;22526;-81
2022/07/27 03:01:16;;;;;;;5.40;3.30;;;;;;;13.99;89.83;96551.73;108473;1268;23162;-81
2022/07/27 03:03:48;;;;;;;4.60;4.10;;;;;;;14.00;89.65;96548.55;105454;1268;2521030;-80
2022/07/27 03:06:20;;;;;;;4.10;3.70;;;;;;;14.01;89.49;96548.52;108455;1268;22554;-81
2022/07/27 03:08:56;;;;;;;3.80;3.30;;;;;;;14.00;89.43;96547.77;108464;1268;22635;-81
2022/07/27 03:11:32;;;;;;;9.00;3.70;;;;;;;13.96;89.36;96557.02;108458;1268;22582;-81
2022/07/27 03:14:03;;;;;;;5.30;3.90;;;;;;;13.92;89.37;96557.46;108250;1268;101436;-80
2022/07/27 03:16:44;;;;;;;5.10;3.90;;;;;;;13.94;89.54;96556.04;108447;1268;24208;-80
2022/07/27 03:19:21;;;;;;;5.10;3.70;;;;;;;14.01;89.33;96556.48;108445;1268;22594;-80
2022/07/27 03:21:55;;;;;;;5.30;4.00;;;;;;;14.02;89.20;96553.29;108439;1268;22560;-79
2022/07/27 03:24:29;;;;;;;3.60;2.80;;;;;;;14.04;88.94;96557.03;108247;1267;96808;-80
2022/07/27 03:27:05;;;;;;;6.50;3.50;;;;;;;14.04;88.92;96561.14;108477;1268;22546;-80
2022/07/27 03:29:39;;;;;;;6.10;3.40;;;;;;;14.09;88.93;96561.41;108451;1268;22626;-80
2022/07/27 03:32:17;;;;;;;5.10;4.00;;;;;;;14.09;88.83;96563.65;108425;1268;22636;-80
2022/07/27 03:34:52;;;;;;;6.60;3.90;;;;;;;14.11;88.87;96562.98;108216;1268;105760;-80
2022/07/27 03:37:29;;;;;;;4.60;4.00;;;;;;;14.15;88.82;96562.48;108446;1268;22633;-79
2022/07/27 03:40:05;;;;;;;7.40;3.60;;;;;;;14.17;88.80;96562.44;108456;1268;22536;-79
2022/07/27 03:42:37;;;;;;;5.30;3.90;;;;;;;14.23;88.81;96556.83;108458;1268;22587;-80
2022/07/27 03:45:18;;;;;;;5.40;3.60;;;;;;;14.22;88.55;96551.83;108290;1268;70360;-79
2022/07/27 03:47:49;;;;;;;4.40;3.40;;;;;;;14.23;88.55;96558.46;108389;1268;22708;-79
2022/07/27 03:50:27;;;;;;;4.10;3.70;;;;;;;14.26;88.59;96560.20;108358;1268;25251;-79
2022/07/27 03:53:08;;;;;;;5.40;4.20;;;;;;;14.31;88.62;96560.79;108527;1268;22643;-80
2022/07/27 03:55:42;;;;;;;6.80;3.80;;;;;;;14.39;88.50;96559.17;108312;1268;31932;-80
2022/07/27 03:58:15;;;;;;;4.70;3.70;;;;;;;14.42;88.31;96560.59;108436;1268;22541;-79
2022/07/27 04:00:53;;;;;;;4.90;3.90;;;;;;;14.43;88.43;96560.73;108476;1268;22678;-79
2022/07/27 04:03:27;;;;;;;6.30;3.90;;;;;;;14.47;88.36;96563.16;108420;1268;25200;-80
2022/07/27 04:05:59;;;;;;;4.50;3.80;;;;;;;14.50;88.51;96570.88;108426;1268;24103;-80
2022/07/27 04:08:35;;;;;;;5.80;3.80;;;;;;;14.54;88.69;96571.38;108449;1268;23042;-80
2022/07/27 04:11:10;;;;;;;5.80;3.80;;;;;;;14.62;88.54;96570.52;108513;1268;22557;-79
2022/07/27 04:13:42;;;;;;;6.10;4.20;;;;;;;14.65;88.15;96565.02;108305;1268;79746;-80
2022/07/27 04:16:15;;;;;;;5.20;3.40;;;;;;;14.68;88.10;96564.25;108443;1268;23269;-80
2022/07/27 04:18:47;;;;;;;6.20;3.30;;;;;;;14.73;87.99;96568.06;108434;1268;22579;-80
2022/07/27 04:21:18;;;;;;;3.80;3.10;;;;;;;14.77;87.90;96566.77;108458;1268;23045;-80
2022/07/27 04:23:54;;;;;;;4.10;3.10;;;;;;;14.81;87.77;96571.92;108304;1267;87457;-80
2022/07/27 04:26:30;;;;;;;4.30;3.40;;;;;;;14.89;87.77;96572.58;108427;1267;22539;-80
2022/07/27 04:29:02;;;;;;;5.50;3.20;;;;;;;15.00;87.94;96573.95;108384;1268;23216;-81
2022/07/27 04:31:41;;;;;;;4.40;3.50;;;;;;;15.14;87.89;96575.27;108379;1268;22594;-80
2022/07/27 04:34:15;;;;;;;5.40;3.50;;;;;;;15.28;87.87;96574.52;108356;1268;72028;-80
2022/07/27 04:36:46;;;;;;;5.10;3.30;;;;;;;15.48;88.07;96573.29;108476;1268;22574;-77
2022/07/27 04:39:17;;;;;;;5.20;3.80;;;;;;;15.69;88.16;96576.35;108400;1267;22524;-77
2022/07/27 04:41:51;;;;;;;5.50;3.70;;;;;;;15.89;87.82;96576.30;108396;1268;22725;-76
2022/07/27 04:44:24;;;;;;;4.80;3.30;;;;;;;16.06;87.40;96575.09;108351;1268;54880;-76
2022/07/27 04:46:57;;;;;;;5.20;3.30;;;;;;;16.25;86.98;96576.83;108375;1268;22522;-76
2022/07/27 04:49:28;;;;;;;4.70;3.10;;;;;;;16.40;86.60;96580.54;108348;1270;22839;-76
2022/07/27 04:52:00;;;;;;;3.60;3.20;;;;;;;16.50;85.86;96584.44;108337;1268;22540;-76
2022/07/27 04:54:31;;;;;;;3.90;3.00;;;;;;;16.63;85.44;96579.36;108320;1268;26511;-77
2022/07/27 04:57:02;;;;;;;3.00;2.80;;;;;;;16.83;85.13;96582.34;108351;1267;24213;-77
2022/07/27 04:59:34;;;;;;;4.70;2.90;;;;;;;17.13;84.93;96581.69;108359;1268;22976;-79
2022/07/27 05:02:05;;;;;;;5.50;3.60;;;;;;;17.62;84.88;96578.50;108378;1268;22585;-79
2022/07/27 05:04:36;;;;;;;5.00;3.80;;;;;;;19.00;84.76;96579.15;108398;1268;31215;-79
2022/07/27 05:07:07;;;;;;;4.30;2.90;;;;;;;20.87;82.38;96584.42;108507;1268;22547;-79
2022/07/27 05:09:39;;;;;;;4.50;2.70;;;;;;;22.43;77.14;96582.48;108506;1267;22548;-79
2022/07/27 05:12:11;;;;;;;3.00;2.60;;;;;;;23.65;72.99;96584.10;108452;1270;22557;-79
2022/07/27 05:14:42;;;;;;;2.90;2.30;;;;;;;24.66;70.27;96590.70;108355;1268;34660;-78
2022/07/27 05:17:13;;;;;;;2.70;2.20;;;;;;;25.46;67.81;96594.77;108431;1268;22554;-79
2022/07/27 05:19:44;;;;;;;5.70;2.30;;;;;;;26.50;65.68;96586.60;108346;1268;22556;-79
2022/07/27 05:22:20;;;;;;;3.50;2.20;;;;;;;27.09;62.61;96584.97;108332;1267;22539;-79
2022/07/27 05:24:51;;;;;;;3.00;2.00;;;;;;;26.59;59.38;96591.00;108292;1268;30351;-78
2022/07/27 05:27:23;;;;;;;5.10;2.40;;;;;;;25.03;58.31;96596.12;108338;1268;22561;-78
2022/07/27 05:29:54;;;;;;;3.40;2.20;;;;;;;23.23;58.44;96591.66;108345;1268;25299;-79
2022/07/27 05:32:25;;;;;;;3.80;2.50;;;;;;;21.82;60.19;96587.33;108336;1268;22527;-79
2022/07/27 05:34:57;;;;;;;5.00;2.20;;;;;;;20.70;61.91;96596.48;108285;1268;32409;-79
2022/07/27 05:37:29;;;;;;;5.50;2.60;;;;;;;19.98;63.61;96597.59;108355;1268;25248;-78
2022/07/27 05:40:00;;;;;;;4.30;3.00;;;;;;;19.37;65.32;96596.77;108384;1267;22685;-78
2022/07/27 05:42:31;;;;;;;5.80;2.90;;;;;;;19.08;67.00;96598.04;108324;1268;22717;-78
2022/07/27 05:45:04;;;;;;;4.90;3.20;;;;;;;18.82;67.80;96606.89;108194;1268;100820;-78
2022/07/27 05:47:35;;;;;;;3.00;2.50;;;;;;;18.65;68.85;96610.70;108329;1268;24052;-78
2022/07/27 05:50:08;;;;;;;3.10;2.80;;;;;;;18.52;69.64;96610.01;108362;1268;22586;-78
2022/07/27 05:52:40;;;;;;;3.80;3.40;;;;;;;18.41;70.58;96614.60;108384;1268;22625;-79
2022/07/27 05:55:12;;;;;;;5.00;3.20;;;;;;;18.37;71.22;96614.70;108265;1268;29822;-79
2022/07/27 05:57:44;;;;;;;7.50;3.90;;;;;;;18.36;72.04;96612.84;108309;1268;22918;-79
2022/07/27 06:00:18;;;;;;;5.30;3.50;;;;;;;18.93;73.44;96612.55;108370;1268;22469;-79
2022/07/27 06:02:49;;;;;;;5.70;3.80;;;;;;;20.08;72.47;96618.13;108362;1268;22553;-79
2022/07/27 06:05:21;;;;;;;5.40;2.90;;;;;;;21.69;72.56;96621.04;108277;1268;29697;-79
2022/07/27 06:07:59;;;;;;;5.20;3.70;;;;;;;24.52;70.60;96609.16;108361;1268;22536;-79
2022/07/27 06:10:35;;;;;;;5.10;3.60;;;;;;;27.10;64.60;96601.24;108324;1268;22552;-79
2022/07/27 06:13:10;;;;;;;4.80;3.90;;;;;;;28.54;60.68;96606.34;108372;1268;22906;-79
2022/07/27 06:15:43;;;;;;;6.20;5.10;;;;;;;29.37;56.42;96607.04;108257;1268;32412;-80
2022/07/27 06:18:17;;;;;;;6.80;5.50;;;;;;;30.61;55.18;96608.24;108399;1268;22916;-80
2022/07/27 06:20:48;;;;;;;7.00;5.60;;;;;;;32.17;52.89;96606.27;108355;1268;22587;-80
2022/07/27 06:23:20;;;;;;;5.70;4.30;;;;;;;33.42;50.90;96605.70;108313;1268;23132;-80
2022/07/27 06:25:53;;;;;;;7.90;5.00;;;;;;;34.57;47.37;96606.73;108295;1268;28224;-80
2022/07/27 06:28:24;;;;;;;7.10;4.20;;;;;;;34.41;43.51;96610.84;108352;1270;23862;-80
2022/07/27 06:30:57;;;;;;;5.80;4.20;;;;;;;33.43;42.29;96607.48;108333;1268;22805;-80
2022/07/27 06:33:30;;;;;;;8.60;5.60;;;;;;;30.07;41.69;96606.73;108303;1268;34097;-79
2022/07/27 06:36:02;;;;;;;6.90;4.50;;;;;;;27.32;45.15;96610.00;108385;1268;25253;-80
2022/07/27 06:38:33;;;;;;;7.80;5.00;;;;;;;25.70;47.61;96608.90;108297;1268;22715;-80
2022/07/27 06:41:04;;;;;;;5.90;4.20;;;;;;;24.49;50.87;96612.88;108346;1268;22552;-80
2022/07/27 06:43:36;;;;;;;8.20;5.20;;;;;;;24.55;53.04;96612.55;108291;1268;28597;-80
2022/07/27 06:46:11;;;;;;;7.30;5.70;;;;;;;26.53;52.59;96609.09;108321;1268;23298;-80
2022/07/27 06:48:43;;;;;;;5.90;4.20;;;;;;;28.72;51.39;96609.42;108320;1270;22541;-80
2022/07/27 06:51:14;;;;;;;5.20;4.40;;;;;;;31.33;50.66;96613.90;108338;1268;22542;-80
2022/07/27 06:53:45;;;;;;;6.30;4.30;;;;;;;33.61;46.93;96617.02;108284;1268;31356;-80
2022/07/27 06:56:17;;;;;;;6.10;4.80;;;;;;;33.64;44.00;96620.91;108361;1268;22524;-80
2022/07/27 06:58:49;;;;;;;8.50;4.80;;;;;;;34.49;43.98;96618.95;108353;1268;22533;-80
2022/07/27 07:01:22;;;;;;;7.10;4.60;;;;;;;36.24;42.02;96617.22;108366;1268;22818;-80
2022/07/27 07:03:56;;;;;;;7.00;4.80;;;;;;;36.97;39.49;96623.09;108290;1268;33428;-79
2022/07/27 07:06:29;;;;;;;7.70;5.10;;;;;;;35.52;37.68;96620.95;108387;1268;22558;-80
2022/07/27 07:09:01;;;;;;;7.10;4.20;;;;;;;33.43;38.75;96618.90;108369;1268;22561;-79
2022/07/27 07:11:32;;;;;;;6.40;5.10;;;;;;;31.52;39.92;96616.41;108358;1268;22729;-79
2022/07/27 07:14:03;;;;;;;8.30;6.60;;;;;;;29.91;40.56;96618.92;108256;1268;32632;-79
2022/07/27 07:16:35;;;;;;;8.50;7.50;;;;;;;28.18;42.10;96617.77;108330;1268;22555;-79
2022/07/27 07:19:06;;;;;;;9.10;7.70;;;;;;;26.39;44.16;96620.80;108347;1270;22526;-79
2022/07/27 07:21:37;;;;;;;10.00;8.70;;;;;;;25.60;46.50;96618.87;108383;1268;22692;-79
2022/07/27 07:24:12;;;;;;;9.00;7.90;;;;;;;25.68;47.35;96621.96;108104;1268;107170;-79
2022/07/27 07:26:44;;;;;;;9.10;8.10;;;;;;;26.04;48.39;96624.16;108316;1270;22532;-79
2022/07/27 07:29:15;;;;;;;9.60;7.90;;;;;;;26.78;47.33;96627.07;108334;1268;22701;-79
2022/07/27 07:31:48;;;;;;;10.70;8.00;;;;;;;26.85;47.56;96628.66;108323;1269;22661;-79
2022/07/27 07:34:20;;;;;;;10.00;7.60;;;;;;;28.59;47.53;96624.52;108286;1268;32419;-79
2022/07/27 07:36:51;;;;;;;11.00;7.90;;;;;;;31.05;45.00;96636.45;108363;1267;22524;-80
2022/07/27 07:39:23;;;;;;;8.80;7.00;;;;;;;32.94;42.48;96640.09;108352;1269;23944;-80
2022/07/27 07:41:54;;;;;;;8.20;7.40;;;;;;;33.98;39.85;96648.07;108388;1268;22569;-81
2022/07/27 07:44:26;;;;;;;7.90;6.50;;;;;;;35.34;39.83;96641.67;108251;1268;34609;-80
2022/07/27 07:46:57;;;;;;;8.60;6.70;;;;;;;36.39;38.12;96640.38;108341;1268;24245;-81
2022/07/27 07:49:29;;;;;;;8.20;6.50;;;;;;;36.01;36.04;96646.41;108348;1268;25000;-81
2022/07/27 07:52:00;;;;;;;7.80;6.50;;;;;;;33.09;35.95;96652.10;108298;1270;22544;-80
2022/07/27 07:54:32;;;;;;;8.40;7.50;;;;;;;29.85;38.02;96662.59;108252;1268;31731;-80
2022/07/27 07:57:03;;;;;;;11.60;8.30;;;;;;;28.21;41.28;96659.42;108301;1269;22583;-79
2022/07/27 07:59:35;;;;;;;10.20;9.10;;;;;;;27.31;42.49;96663.70;108364;1268;22541;-80
2022/07/27 08:02:06;;;;;;;12.20;9.90;;;;;;;26.30;44.59;96666.35;108340;1268;25522;-79
2022/07/27 08:04:37;;;;;;;9.90;8.90;;;;;;;26.80;46.30;96666.86;108279;1270;34853;-79
2022/07/27 08:07:09;;;;;;;10.30;9.20;;;;;;;27.96;46.71;96660.77;108328;1270;24340;-80
2022/07/27 08:09:40;;;;;;;8.70;7.40;;;;;;;30.57;44.43;96659.29;108340;1270;22559;-80
2022/07/27 08:12:11;;;;;;;9.10;8.00;;;;;;;32.51;42.16;96654.97;108340;1268;24501;-80
2022/07/27 08:14:42;;;;;;;10.30;7.00;;;;;;;33.28;39.27;96650.92;108283;1268;26332;-80
2022/07/27 08:17:14;;;;;;;9.10;7.60;;;;;;;34.53;37.73;96655.59;108358;1269;22533;-80
2022/07/27 08:19:45;;;;;;;8.30;7.50;;;;;;;35.40;37.15;96660.60;108358;1271;22543;-80
2022/07/27 08:22:16;;;;;;;8.00;7.30;;;;;;;35.69;35.66;96663.96;108328;1268;24033;-80
2022/07/27 08:24:47;;;;;;;8.20;7.10;;;;;;;36.77;33.90;96662.59;108066;1270;127399;-80
2022/07/27 08:27:18;;;;;;;8.60;6.40;;;;;;;37.05;33.77;96666.30;108357;1268;23215;-80
2022/07/27 08:29:51;;;;;;;8.70;6.80;;;;;;;36.09;32.69;96668.31;108341;1268;22479;-80
2022/07/27 08:32:23;;;;;;;9.40;8.50;;;;;;;33.85;33.69;96673.70;108369;1270;24239;-80
2022/07/27 08:34:55;;;;;;;9.90;8.80;;;;;;;30.13;35.97;96670.30;108292;1268;29248;-79
2022/07/27 08:37:27;;;;;;;10.60;9.00;;;;;;;27.26;40.03;96670.87;108335;1268;22710;-80
2022/07/27 08:39:59;;;;;;;11.30;10.00;;;;;;;25.56;43.37;96674.66;108329;1268;22671;-79
2022/07/27 08:42:34;;;;;;;17.20;15.30;;;;;;;24.51;46.10;96673.13;108369;1268;22665;-78
2022/07/27 08:45:06;;;;;;;15.90;14.30;;;;;;;23.53;48.42;96672.83;108286;1270;27873;-78
2022/07/27 08:47:39;;;;;;;20.30;17.90;;;;;;;22.60;51.25;96680.90;108333;1268;22541;-78
2022/07/27 08:50:23;;;;;;;19.30;17.10;;;;;;;21.94;53.38;96681.03;108325;1268;22549;-78
2022/07/27 08:52:58;;;;;;;16.70;14.70;;;;;;;22.96;55.15;96679.60;108203;1270;24374;-79
2022/07/27 08:55:33;;;;;;;16.60;14.90;;;;;;;25.25;51.28;96683.01;108283;1268;29482;-79
2022/07/27 08:58:06;;;;;;;15.90;13.80;;;;;;;27.24;48.90;96678.19;108328;1270;22555;-79
2022/07/27 09:00:43;;;;;;;14.20;12.50;;;;;;;28.95;45.92;96675.27;108350;1268;22615;-79
2022/07/27 09:03:16;;;;;;;14.40;13.00;;;;;;;29.69;43.41;96674.89;108354;1268;22582;-79
2022/07/27 09:05:50;;;;;;;15.20;13.70;;;;;;;29.64;41.88;96673.92;108273;1269;31845;-80
2022/07/27 09:08:25;;;;;;;13.60;12.30;;;;;;;29.37;41.48;96669.02;108351;1270;22526;-79
2022/07/27 09:10:59;;;;;;;13.40;12.10;;;;;;;29.54;42.04;96670.70;108343;1268;24314;-80
2022/07/27 09:13:34;;;;;;;13.90;12.40;;;;;;;29.30;41.74;96669.90;108124;1268;135406;-79
2022/07/27 09:16:07;;;;;;;13.00;11.80;;;;;;;29.06;42.23;96672.97;108360;1268;24065;-79
2022/07/27 09:18:40;;;;;;;13.50;12.10;;;;;;;27.96;42.90;96673.96;108333;1268;24185;-80
2022/07/27 09:21:14;;;;;;;15.00;13.50;;;;;;;26.73;44.06;96672.27;108341;1270;23902;-80
2022/07/27 09:23:49;;;;;;;14.70;13.30;;;;;;;26.13;45.45;96669.65;108288;1269;26821;-79
2022/07/27 09:26:25;;;;;;;15.20;13.70;;;;;;;26.07;46.89;96669.21;108231;1270;22535;-79
2022/07/27 09:29:00;;;;;;;16.00;14.40;;;;;;;26.01;46.89;96666.69;108375;1268;22629;-80
2022/07/27 09:31:33;;;;;;;15.30;13.70;;;;;;;25.41;47.98;96666.85;108344;1268;22533;-80
2022/07/27 09:34:05;;;;;;;15.30;13.90;;;;;;;25.22;49.05;96664.56;108319;1268;32757;-80
2022/07/27 09:36:52;;;;;;;15.30;13.90;;;;;;;24.80;49.56;96661.05;108342;1270;22571;-79
2022/07/27 09:39:25;;;;;;;16.40;14.60;;;;;;;24.99;50.99;96661.75;108358;1268;22553;-79
2022/07/27 09:42:00;;;;;;;15.70;13.80;;;;;;;25.37;51.53;96659.14;108353;1268;22554;-79
2022/07/27 09:44:39;;;;;;;14.10;12.30;;;;;;;25.80;50.90;96659.69;108230;1270;26173;-78
2022/07/27 09:47:25;;;;;;;16.20;13.70;;;;;;;26.08;49.76;96654.25;108355;1268;22606;-78
2022/07/27 09:50:15;;;;;;;15.50;13.90;;;;;;;26.28;50.41;96652.89;108356;1268;22625;-78
2022/07/27 09:52:47;;;;;;;16.70;15.10;;;;;;;26.09;49.44;96658.66;108376;1267;22697;-78
2022/07/27 09:55:21;;;;;;;18.20;14.90;;;;;;;25.18;50.01;96655.91;108279;1268;30340;-78
2022/07/27 09:57:57;;;;;;;16.10;14.20;;;;;;;24.33;51.79;96651.51;108352;1268;22549;-78
2022/07/27 10:00:29;;;;;;;15.20;13.70;;;;;;;23.59;53.08;96646.80;108316;1268;23460;-78
2022/07/27 10:03:01;;;;;;;14.30;12.80;;;;;;;23.17;53.42;96650.99;108111;1271;22566;-79
2022/07/27 10:05:33;;;;;;;16.20;14.70;;;;;;;22.90;54.15;96648.55;108206;1268;73654;-79
2022/07/27 10:08:06;;;;;;;16.50;14.80;;;;;;;22.80;56.03;96652.98;108351;1268;22549;-79
2022/07/27 10:10:38;;;;;;;17.00;15.40;;;;;;;22.84;56.63;96650.92;108368;1268;22568;-79
2022/07/27 10:13:09;;;;;;;17.90;16.10;;;;;;;23.27;56.57;96652.05;108335;1270;22518;-78
2022/07/27 10:15:43;;;;;;;17.10;15.40;;;;;;;23.74;56.18;96646.60;108252;1268;31997;-78
2022/07/27 10:18:21;;;;;;;17.90;16.10;;;;;;;23.86;55.77;96648.11;108350;1268;22564;-79
2022/07/27 10:20:57;;;;;;;15.90;14.20;;;;;;;23.76;55.94;96648.27;108380;1268;22532;-79
2022/07/27 10:23:33;;;;;;;17.80;15.90;;;;;;;23.24;56.52;96647.27;108259;1269;33269;-78
2022/07/27 10:26:31;;;;;;;15.80;14.30;;;;;;;22.98;57.64;96643.77;108346;1268;22555;-79
2022/07/27 10:29:04;;;;;;;16.30;14.50;;;;;;;22.94;58.17;96644.70;108364;1270;22536;-78
2022/07/27 10:31:39;;;;;;;15.40;13.80;;;;;;;23.05;57.74;96644.83;108341;1268;23201;-79
2022/07/27 10:34:12;;;;;;;16.30;14.60;;;;;;;22.93;58.82;96645.52;108279;1268;29457;-78
2022/07/27 10:36:48;;;;;;;15.00;13.50;;;;;;;22.73;58.26;96652.84;108324;1271;22478;-78
2022/07/27 10:39:35;;;;;;;14.10;12.70;;;;;;;22.43;58.45;96652.77;108355;1270;22659;-78
2022/07/27 10:42:30;;;;;;;12.80;11.50;;;;;;;22.45;59.59;96651.88;108358;1268;22684;-78
2022/07/27 10:45:11;;;;;;;13.50;12.10;;;;;;;22.81;59.68;96653.01;108272;1268;56336;-79
2022/07/27 10:47:44;;;;;;;13.50;11.80;;;;;;;23.03;59.44;96650.98;108324;1268;22577;-78
2022/07/27 10:50:31;;;;;;;12.30;11.20;;;;;;;23.43;59.25;96653.79;108339;1268;22546;-78
2022/07/27 10:53:05;;;;;;;13.00;11.60;;;;;;;23.71;57.53;96655.05;108376;1268;22915;-79
2022/07/27 10:55:47;;;;;;;12.80;11.50;;;;;;;23.66;57.13;96657.40;108247;1270;30313;-78
2022/07/27 10:58:46;;;;;;;12.20;10.50;;;;;;;23.81;57.49;96658.47;108320;1271;22527;-78
2022/07/27 11:01:20;;;;;;;12.60;10.20;;;;;;;24.00;56.77;96653.27;108329;1268;25299;-78
2022/07/27 11:03:54;;;;;;;10.90;9.60;;;;;;;23.67;55.17;96650.27;108284;1268;31217;-78
2022/07/27 11:06:31;;;;;;;13.60;10.30;;;;;;;23.17;56.45;96650.63;108355;1270;22534;-79
2022/07/27 11:09:04;;;;;;;12.70;11.40;;;;;;;22.96;56.63;96651.40;108347;1268;22580;-78
2022/07/27 11:11:37;;;;;;;12.30;10.80;;;;;;;23.01;56.80;96650.70;108344;1271;22581;-78
2022/07/27 11:14:10;;;;;;;12.70;10.80;;;;;;;23.09;56.58;96651.00;108370;1268;30828;-79
2022/07/27 11:16:41;;;;;;;13.70;11.50;;;;;;;23.23;57.10;96644.55;108328;1268;22555;-78
2022/07/27 11:19:15;;;;;;;11.10;9.60;;;;;;;23.36;57.12;96638.52;108327;1268;22551;-78
2022/07/27 11:21:48;;;;;;;10.00;9.00;;;;;;;23.44;56.73;96631.92;108320;1268;22717;-79
2022/07/27 11:24:22;;;;;;;11.30;9.20;;;;;;;23.52;57.25;96629.83;108266;1268;33893;-78
2022/07/27 11:26:55;;;;;;;10.90;9.80;;;;;;;23.66;57.47;96621.66;108349;1268;22595;-78
2022/07/27 11:29:27;;;;;;;11.00;9.90;;;;;;;23.72;56.60;96627.16;108348;1268;22596;-78
2022/07/27 11:32:02;;;;;;;10.70;9.60;;;;;;;23.61;56.73;96629.91;108366;1271;25401;-79
2022/07/27 11:34:35;;;;;;;11.70;9.20;;;;;;;23.97;57.23;96629.00;108244;1269;43199;-78
2022/07/27 11:37:17;;;;;;;9.80;7.90;;;;;;;24.28;56.03;96622.50;108348;1268;22552;-78
2022/07/27 11:39:58;;;;;;;10.10;8.40;;;;;;;24.62;56.00;96622.33;108324;1270;22615;-78
2022/07/27 11:42:43;;;;;;;10.20;8.40;;;;;;;24.83;54.59;96622.89;108360;1268;22744;-78
2022/07/27 11:45:27;;;;;;;9.40;8.30;;;;;;;24.95;53.75;96621.92;108286;1268;37918;-78
2022/07/27 11:47:59;;;;;;;11.30;8.70;;;;;;;24.95;53.51;96622.02;108342;1268;22551;-79
2022/07/27 11:50:31;;;;;;;10.00;7.40;;;;;;;25.07;54.41;96616.42;108345;1268;22538;-79
2022/07/27 11:53:03;;;;;;;7.80;7.00;;;;;;;25.25;53.41;96617.77;108349;1271;25388;-78
2022/07/27 11:55:34;;;;;;;7.40;6.60;;;;;;;25.13;51.86;96620.37;108255;1270;59966;-78
2022/07/27 11:58:06;;;;;;;8.40;6.60;;;;;;;25.15;51.52;96619.22;108389;1269;23059;-78
2022/07/27 12:00:44;;;;;;;7.30;6.60;;;;;;;25.27;52.44;96622.36;108347;1268;22552;-78